Time;durP1;ratioP1;P1;durP2;ratioP2;P2;SDS_P1;SDS_P2;PMS_P1;PMS_P2;Temp;Humidity;BMP_temperature;BMP_pressure;BME280_temperature;BME280_humidity;BME280_pressure;Samples;Min_cycle;Max_cycle;Signal;HPM_P1;HPM_P2
2021/07/28 00:01:04;;;;;;;20.55;6.88;;;23.40;99.90;;;;;;4224267;28;20108;-61
2021/07/28 00:03:05;;;;;;;19.48;6.25;;;23.40;99.90;;;;;;4224089;28;20043;-62
2021/07/28 00:05:07;;;;;;;18.55;5.65;;;23.40;99.90;;;;;;4224608;27;20036;-60
2021/07/28 00:07:09;;;;;;;20.15;5.28;;;23.40;99.90;;;;;;4223183;28;20421;-62
2021/07/28 00:09:11;;;;;;;18.20;6.05;;;23.40;99.90;;;;;;4224751;28;20019;-60
2021/07/28 00:11:13;;;;;;;14.45;5.75;;;23.40;99.90;;;;;;4222438;28;20125;-62
2021/07/28 00:13:14;;;;;;;17.70;5.78;;;23.40;99.90;;;;;;4224412;28;20425;-62
2021/07/28 00:15:15;;;;;;;19.42;5.68;;;23.40;99.90;;;;;;4223732;28;20035;-63
2021/07/28 00:17:17;;;;;;;12.57;4.93;;;23.30;99.90;;;;;;4224888;27;20036;-62
2021/07/28 00:19:22;;;;;;;17.15;5.88;;;23.30;99.90;;;;;;4224222;28;20077;-63
2021/07/28 00:23:42;;;;;;;17.65;5.55;;;23.30;99.90;;;;;;4224138;28;20084;-61
2021/07/28 00:25:47;;;;;;;10.20;5.25;;;23.20;99.90;;;;;;4224076;28;20080;-62
2021/07/28 00:27:51;;;;;;;20.00;5.50;;;23.20;99.90;;;;;;4224457;28;20023;-62
2021/07/28 00:29:52;;;;;;;15.65;5.22;;;23.20;99.90;;;;;;4223477;28;20077;-62
2021/07/28 00:31:53;;;;;;;18.70;6.28;;;23.20;99.90;;;;;;4224279;27;20532;-62
2021/07/28 00:33:54;;;;;;;15.32;5.68;;;23.20;99.90;;;;;;4224103;28;20429;-62
2021/07/28 00:35:55;;;;;;;13.00;5.35;;;23.20;99.90;;;;;;4224158;28;20073;-62
2021/07/28 00:38:05;;;;;;;16.02;5.43;;;23.10;99.90;;;;;;4224240;27;20043;-62
2021/07/28 00:40:07;;;;;;;13.48;5.90;;;23.10;99.90;;;;;;4224446;28;20088;-62
2021/07/28 00:42:08;;;;;;;15.23;5.55;;;23.00;99.90;;;;;;4223604;28;20439;-61
2021/07/28 00:44:09;;;;;;;15.55;5.88;;;23.00;99.90;;;;;;4224376;28;20024;-64
2021/07/28 00:46:10;;;;;;;17.88;6.07;;;23.00;99.90;;;;;;4223051;28;20548;-62
2021/07/28 00:48:14;;;;;;;13.00;5.20;;;23.00;99.90;;;;;;4223003;27;20043;-62
2021/07/28 00:50:15;;;;;;;17.77;5.20;;;22.90;99.90;;;;;;4223496;28;20057;-63
2021/07/28 00:52:16;;;;;;;14.55;6.03;;;22.90;99.90;;;;;;4224603;27;20039;-62
2021/07/28 00:54:19;;;;;;;9.70;4.97;;;22.90;99.90;;;;;;4223465;28;20035;-62
2021/07/28 00:56:20;;;;;;;14.20;5.78;;;22.80;99.90;;;;;;4223549;28;20083;-62
2021/07/28 00:58:22;;;;;;;15.18;5.00;;;22.80;99.90;;;;;;4247842;27;20034;-62
2021/07/28 01:00:23;;;;;;;22.15;5.80;;;22.80;99.90;;;;;;4256397;27;20035;-63
2021/07/28 01:02:24;;;;;;;14.68;5.70;;;22.80;99.90;;;;;;4238485;27;20080;-62
2021/07/28 01:04:25;;;;;;;13.93;4.90;;;22.80;99.90;;;;;;4257175;27;20063;-61
2021/07/28 01:06:26;;;;;;;19.02;6.20;;;22.70;99.90;;;;;;4257554;27;20439;-62
2021/07/28 01:08:27;;;;;;;12.75;5.45;;;22.70;99.90;;;;;;4257979;27;20026;-62
2021/07/28 01:10:28;;;;;;;16.15;5.47;;;22.70;99.90;;;;;;4257474;27;20648;-62
2021/07/28 01:12:31;;;;;;;13.15;5.82;;;22.60;99.90;;;;;;4257366;27;20071;-63
2021/07/28 01:14:32;;;;;;;18.80;4.85;;;22.60;99.90;;;;;;4257791;27;20096;-62
2021/07/28 01:16:40;;;;;;;14.35;5.40;;;22.50;99.90;;;;;;4257439;27;20034;-62
2021/07/28 01:18:43;;;;;;;14.85;5.38;;;22.50;99.90;;;;;;4257616;27;20451;-63
2021/07/28 01:20:46;;;;;;;11.75;5.03;;;22.50;99.90;;;;;;4257119;27;20023;-62
2021/07/28 01:22:47;;;;;;;13.55;5.63;;;22.50;99.90;;;;;;4258102;27;20026;-62
2021/07/28 01:24:50;;;;;;;11.68;5.70;;;22.40;99.90;;;;;;4256714;27;20034;-62
2021/07/28 01:26:52;;;;;;;15.50;5.63;;;22.40;99.90;;;;;;4257179;27;20064;-62
2021/07/28 01:28:54;;;;;;;19.48;5.45;;;22.30;99.90;;;;;;4257059;27;20087;-63
2021/07/28 01:30:59;;;;;;;13.98;5.72;;;22.30;99.90;;;;;;4257212;27;20023;-63
2021/07/28 01:33:02;;;;;;;11.80;5.80;;;22.30;99.90;;;;;;4255756;27;20031;-62
2021/07/28 01:35:06;;;;;;;15.48;5.60;;;22.30;99.90;;;;;;4256963;27;20527;-62
2021/07/28 01:37:09;;;;;;;21.10;5.78;;;22.30;99.90;;;;;;4257041;27;20432;-62
2021/07/28 01:39:10;;;;;;;23.33;6.65;;;22.30;99.90;;;;;;4256641;27;20087;-61
2021/07/28 01:41:12;;;;;;;17.65;6.22;;;22.30;99.90;;;;;;4257007;27;20038;-62
2021/07/28 01:43:14;;;;;;;17.27;6.50;;;22.20;99.90;;;;;;4256080;27;20075;-62
2021/07/28 01:45:17;;;;;;;15.30;5.80;;;22.20;99.90;;;;;;4255574;27;20038;-62
2021/07/28 01:47:18;;;;;;;14.15;5.57;;;22.20;99.90;;;;;;4256638;27;20067;-62
2021/07/28 01:49:19;;;;;;;21.92;5.70;;;22.20;99.90;;;;;;4238504;27;20031;-62
2021/07/28 01:51:20;;;;;;;15.45;5.50;;;22.20;99.90;;;;;;4256816;27;20360;-62
2021/07/28 01:53:23;;;;;;;23.40;7.13;;;22.10;99.90;;;;;;4257189;27;20053;-63
2021/07/28 01:55:24;;;;;;;20.75;6.45;;;22.10;99.90;;;;;;4255864;27;20079;-62
2021/07/28 01:57:25;;;;;;;16.38;5.13;;;22.10;99.90;;;;;;4255666;27;20838;-61
2021/07/28 01:59:27;;;;;;;13.50;5.60;;;22.10;99.90;;;;;;4254613;27;20463;-63
2021/07/28 02:01:28;;;;;;;13.13;5.15;;;22.10;99.90;;;;;;4256767;27;20042;-62
2021/07/28 02:03:29;;;;;;;15.20;5.22;;;22.10;99.90;;;;;;4256208;27;20034;-62
2021/07/28 02:05:38;;;;;;;11.93;5.35;;;22.10;99.90;;;;;;4257361;27;20490;-62
2021/07/28 02:07:39;;;;;;;20.42;6.80;;;22.10;99.90;;;;;;4256550;27;20068;-63
2021/07/28 02:09:40;;;;;;;21.13;6.13;;;22.00;99.90;;;;;;4256900;27;20031;-63
2021/07/28 02:11:41;;;;;;;13.20;5.50;;;22.00;99.90;;;;;;4256376;27;20490;-63
2021/07/28 02:13:43;;;;;;;16.95;6.05;;;22.00;99.90;;;;;;4255837;27;20026;-63
2021/07/28 02:15:45;;;;;;;16.35;6.10;;;21.90;99.90;;;;;;4255250;27;20848;-62
2021/07/28 02:17:46;;;;;;;16.73;6.72;;;21.90;99.90;;;;;;4255606;27;20099;-62
2021/07/28 02:19:47;;;;;;;13.18;6.63;;;21.90;99.90;;;;;;4238691;27;20031;-61
2021/07/28 02:21:48;;;;;;;15.15;5.88;;;21.90;99.90;;;;;;4256120;27;20475;-62
2021/07/28 02:23:49;;;;;;;17.30;6.80;;;21.90;99.90;;;;;;4255342;27;20046;-62
2021/07/28 02:25:50;;;;;;;12.90;6.13;;;21.80;99.90;;;;;;4255305;27;20084;-61
2021/07/28 02:27:51;;;;;;;13.52;5.78;;;21.70;99.90;;;;;;4256258;27;20851;-62
2021/07/28 02:29:52;;;;;;;15.85;5.88;;;21.70;99.90;;;;;;4255890;27;20815;-62
2021/07/28 02:31:54;;;;;;;17.08;6.57;;;21.60;99.90;;;;;;4237893;27;20043;-62
2021/07/28 02:33:55;;;;;;;17.83;7.15;;;21.60;99.90;;;;;;4255450;27;20043;-62
2021/07/28 02:35:56;;;;;;;18.90;6.65;;;21.60;99.90;;;;;;4257104;27;20034;-62
2021/07/28 02:37:57;;;;;;;13.88;5.82;;;21.60;99.90;;;;;;4237702;27;20025;-63
2021/07/28 02:39:59;;;;;;;17.02;7.25;;;21.60;99.90;;;;;;4256001;27;20043;-63
2021/07/28 02:42:00;;;;;;;21.17;7.35;;;21.60;99.90;;;;;;4255319;27;20123;-62
2021/07/28 02:44:01;;;;;;;19.38;6.45;;;21.60;99.90;;;;;;4256316;27;20059;-61
2021/07/28 02:46:02;;;;;;;18.13;6.00;;;21.50;99.90;;;;;;4254739;27;20502;-62
2021/07/28 02:48:04;;;;;;;14.82;5.93;;;21.50;99.90;;;;;;4255366;27;20087;-62
2021/07/28 02:50:06;;;;;;;19.17;6.18;;;21.50;99.90;;;;;;4237581;28;20031;-62
2021/07/28 02:52:07;;;;;;;19.52;5.85;;;21.50;99.90;;;;;;4255601;27;20050;-62
2021/07/28 02:54:10;;;;;;;15.65;5.57;;;21.60;99.90;;;;;;4255286;27;20076;-62
2021/07/28 02:56:11;;;;;;;12.95;5.38;;;21.60;99.90;;;;;;4255729;27;20071;-63
2021/07/28 02:58:12;;;;;;;14.77;6.50;;;21.60;99.90;;;;;;4251261;27;20051;-61
2021/07/28 03:00:16;;;;;;;15.40;7.15;;;21.60;99.90;;;;;;4255219;27;20551;-62
2021/07/28 03:02:17;;;;;;;18.52;8.60;;;21.50;99.90;;;;;;4257079;27;20034;-63
2021/07/28 03:04:18;;;;;;;17.02;5.85;;;21.50;99.90;;;;;;4255776;27;20526;-62
2021/07/28 03:06:20;;;;;;;13.02;5.00;;;21.50;99.90;;;;;;4256025;27;20420;-62
2021/07/28 03:08:22;;;;;;;13.38;4.78;;;21.50;99.90;;;;;;4255280;27;20046;-62
2021/07/28 03:10:23;;;;;;;15.95;6.40;;;21.50;99.90;;;;;;4259852;27;20138;-62
2021/07/28 03:12:24;;;;;;;14.00;5.63;;;21.50;99.90;;;;;;4257858;27;20039;-61
2021/07/28 03:14:25;;;;;;;15.32;5.20;;;21.50;99.90;;;;;;4258239;27;20030;-62
2021/07/28 03:16:26;;;;;;;12.93;4.47;;;21.50;99.90;;;;;;4258283;27;20046;-62
2021/07/28 03:18:27;;;;;;;17.45;6.05;;;21.50;99.90;;;;;;4259005;27;20103;-61
2021/07/28 03:20:29;;;;;;;18.73;6.30;;;21.50;99.90;;;;;;4259656;27;20095;-62
2021/07/28 03:22:30;;;;;;;9.10;5.20;;;21.60;99.90;;;;;;4259224;27;20080;-62
2021/07/28 03:24:31;;;;;;;18.48;5.15;;;21.70;99.90;;;;;;4258158;27;20050;-62
2021/07/28 03:26:32;;;;;;;16.13;5.22;;;21.70;99.90;;;;;;4259089;27;20447;-62
2021/07/28 03:28:33;;;;;;;16.60;4.50;;;21.80;99.90;;;;;;4259257;27;20095;-62
2021/07/28 03:30:34;;;;;;;14.90;5.70;;;21.90;99.90;;;;;;4257578;27;20083;-62
2021/07/28 03:32:35;;;;;;;15.48;5.40;;;21.90;99.90;;;;;;4259319;27;20068;-63
2021/07/28 03:34:38;;;;;;;18.75;6.85;;;21.90;99.90;;;;;;4258355;27;20038;-63
2021/07/28 03:36:39;;;;;;;17.45;5.28;;;22.00;99.90;;;;;;4259052;27;20558;-61
2021/07/28 03:38:40;;;;;;;19.58;5.45;;;22.10;99.90;;;;;;4258331;27;20050;-62
2021/07/28 03:40:41;;;;;;;15.05;5.93;;;22.20;99.90;;;;;;4258951;27;20043;-63
2021/07/28 03:42:44;;;;;;;20.08;5.63;;;22.30;99.90;;;;;;4258094;27;20550;-62
2021/07/28 03:44:45;;;;;;;17.85;5.35;;;22.30;99.90;;;;;;4259339;27;20064;-61
2021/07/28 03:46:46;;;;;;;13.13;5.30;;;22.30;99.90;;;;;;4258618;27;20030;-62
2021/07/28 03:48:47;;;;;;;12.15;4.88;;;22.30;99.90;;;;;;4257783;27;20072;-63
2021/07/28 03:50:48;;;;;;;12.73;6.15;;;22.30;99.90;;;;;;4258290;27;20023;-62
2021/07/28 03:52:49;;;;;;;13.68;5.03;;;22.30;99.90;;;;;;4258160;27;20569;-63
2021/07/28 03:54:51;;;;;;;16.15;6.30;;;22.20;99.90;;;;;;4258239;27;20087;-62
2021/07/28 03:56:52;;;;;;;20.17;5.22;;;22.20;99.90;;;;;;4258151;27;20030;-62
2021/07/28 03:58:54;;;;;;;12.85;4.75;;;22.10;99.90;;;;;;4257456;27;20737;-62
2021/07/28 04:00:55;;;;;;;23.08;7.25;;;22.10;99.90;;;;;;4257728;27;20072;-61
2021/07/28 04:02:56;;;;;;;18.67;6.53;;;22.10;99.90;;;;;;4258473;27;20027;-62
2021/07/28 04:04:57;;;;;;;20.52;5.53;;;22.00;99.90;;;;;;4258068;27;20094;-62
2021/07/28 04:06:58;;;;;;;16.02;5.95;;;22.00;99.90;;;;;;4259011;27;20566;-62
2021/07/28 04:08:59;;;;;;;23.85;6.72;;;21.90;99.90;;;;;;4258487;27;20046;-62
2021/07/28 04:11:00;;;;;;;16.05;5.45;;;21.90;99.90;;;;;;4257264;27;20440;-62
2021/07/28 04:13:03;;;;;;;16.27;6.90;;;22.00;99.90;;;;;;4257949;27;20083;-62
2021/07/28 04:15:04;;;;;;;25.42;6.43;;;22.10;99.90;;;;;;4255749;27;20039;-61
2021/07/28 04:17:07;;;;;;;20.88;5.75;;;22.30;99.90;;;;;;4240862;27;20093;-62
2021/07/28 04:19:08;;;;;;;21.67;5.80;;;22.40;99.90;;;;;;4241126;27;20071;-62
2021/07/28 04:21:09;;;;;;;20.42;6.30;;;22.50;99.90;;;;;;4257598;27;20076;-62
2021/07/28 04:23:10;;;;;;;18.33;5.40;;;22.70;99.90;;;;;;4257622;27;20943;-61
2021/07/28 04:25:11;;;;;;;15.50;6.15;;;23.10;99.90;;;;;;4257550;27;20031;-61
2021/07/28 04:27:13;;;;;;;19.35;5.35;;;23.60;99.90;;;;;;4257095;27;20043;-62
2021/07/28 04:29:14;;;;;;;17.85;5.03;;;24.10;99.90;;;;;;4257806;27;20039;-62
2021/07/28 04:31:15;;;;;;;21.20;5.22;;;24.60;99.90;;;;;;4257564;27;20026;-62
2021/07/28 04:33:16;;;;;;;12.20;5.63;;;25.10;99.90;;;;;;4257618;27;20023;-63
2021/07/28 04:35:18;;;;;;;9.98;4.18;;;25.70;99.90;;;;;;4257558;27;20022;-63
2021/07/28 04:37:20;;;;;;;15.23;4.70;;;26.20;99.90;;;;;;4257527;27;20027;-63
2021/07/28 04:39:22;;;;;;;11.65;3.88;;;;;;;;;;4257765;27;20083;-62
2021/07/28 04:41:23;;;;;;;10.23;3.85;;;;;;;;;;4258149;27;20031;-63
2021/07/28 04:43:24;;;;;;;15.73;4.18;;;26.70;99.90;;;;;;4257068;27;20075;-63
2021/07/28 04:45:25;;;;;;;13.23;3.90;;;27.90;98.80;;;;;;4257558;27;20068;-62
2021/07/28 04:47:27;;;;;;;21.23;4.80;;;28.20;98.00;;;;;;4256685;27;20083;-62
2021/07/28 04:49:29;;;;;;;20.80;4.70;;;28.50;97.40;;;;;;4257904;27;20019;-63
2021/07/28 04:51:30;;;;;;;12.10;3.78;;;28.90;96.80;;;;;;4255622;27;20039;-61
2021/07/28 04:53:31;;;;;;;17.17;4.97;;;29.10;96.20;;;;;;4241466;27;20026;-62
2021/07/28 04:55:33;;;;;;;20.77;4.03;;;29.30;95.80;;;;;;4256333;27;20115;-62
2021/07/28 04:57:34;;;;;;;13.50;3.88;;;29.50;95.30;;;;;;4255488;27;20091;-62
2021/07/28 04:59:36;;;;;;;19.48;4.55;;;29.70;94.90;;;;;;4236904;27;20084;-62
2021/07/28 05:01:38;;;;;;;16.42;3.85;;;30.00;94.50;;;;;;4254974;27;20052;-59
2021/07/28 05:03:39;;;;;;;15.93;4.65;;;30.30;93.90;;;;;;4255220;27;20039;-62
2021/07/28 05:05:40;;;;;;;15.88;4.38;;;30.50;93.20;;;;;;4245311;27;20038;-64
2021/07/28 05:07:42;;;;;;;22.77;4.80;;;30.80;92.70;;;;;;4256559;27;21359;-65
2021/07/28 05:09:43;;;;;;;16.67;4.57;;;31.00;92.10;;;;;;4256238;27;20034;-64
2021/07/28 05:11:44;;;;;;;7.90;3.85;;;30.80;91.70;;;;;;4247725;27;20043;-65
2021/07/28 05:13:45;;;;;;;10.93;3.72;;;30.60;91.60;;;;;;4239607;27;20479;-64
2021/07/28 05:15:52;;;;;;;21.73;4.00;;;30.60;91.40;;;;;;4241983;27;20047;-62
2021/07/28 05:17:53;;;;;;;12.70;4.43;;;30.60;91.10;;;;;;4240221;27;20119;-61
2021/07/28 05:19:54;;;;;;;12.00;3.65;;;30.60;91.00;;;;;;4235014;27;20372;-61
2021/07/28 05:21:55;;;;;;;10.93;3.92;;;30.50;91.00;;;;;;4257650;27;20018;-63
2021/07/28 05:23:56;;;;;;;12.75;4.10;;;30.30;90.90;;;;;;4257481;27;20511;-63
2021/07/28 05:25:58;;;;;;;16.35;3.90;;;30.70;90.60;;;;;;4254786;27;20107;-59
2021/07/28 05:27:59;;;;;;;16.10;4.00;;;31.00;90.20;;;;;;4254363;27;20055;-61
2021/07/28 05:30:00;;;;;;;17.90;4.15;;;31.20;89.80;;;;;;4255487;27;20416;-62
2021/07/28 05:32:01;;;;;;;16.52;4.20;;;31.80;89.00;;;;;;4255474;27;20094;-62
2021/07/28 05:34:02;;;;;;;13.02;4.22;;;32.30;87.80;;;;;;4256093;27;21045;-63
2021/07/28 05:36:03;;;;;;;11.38;4.05;;;32.50;86.50;;;;;;4256701;27;20079;-61
2021/07/28 05:38:05;;;;;;;16.27;4.25;;;32.90;85.70;;;;;;4257614;27;20489;-62
2021/07/28 05:40:06;;;;;;;14.02;4.65;;;33.30;84.30;;;;;;4254530;27;20111;-61
2021/07/28 05:42:07;;;;;;;22.35;5.47;;;33.60;82.90;;;;;;4256593;27;20034;-61
2021/07/28 05:44:08;;;;;;;19.70;6.43;;;33.10;83.50;;;;;;4255512;27;20034;-62
2021/07/28 05:46:10;;;;;;;23.02;7.10;;;32.00;85.20;;;;;;4256679;27;20040;-61
2021/07/28 05:48:11;;;;;;;20.58;6.03;;;31.20;86.80;;;;;;4257099;27;20083;-61
2021/07/28 05:50:15;;;;;;;18.42;7.50;;;;;;;;;;4257154;27;20031;-60
2021/07/28 05:52:16;;;;;;;25.30;7.03;;;30.40;88.30;;;;;;4255772;27;20047;-61
2021/07/28 05:54:17;;;;;;;23.08;6.50;;;28.80;91.20;;;;;;4257207;27;20527;-61
2021/07/28 05:56:19;;;;;;;22.73;7.82;;;28.00;91.80;;;;;;4256444;27;20095;-61
2021/07/28 05:58:20;;;;;;;26.80;7.13;;;27.50;92.80;;;;;;4254927;27;20038;-60
2021/07/28 06:00:22;;;;;;;17.88;6.95;;;27.10;93.30;;;;;;4256778;27;20111;-60
2021/07/28 06:02:23;;;;;;;26.80;7.55;;;26.80;93.80;;;;;;4256892;27;20056;-60
2021/07/28 06:04:24;;;;;;;19.25;8.10;;;26.60;94.30;;;;;;4256973;27;20084;-60
2021/07/28 06:06:28;;;;;;;19.10;6.32;;;26.70;94.40;;;;;;4256027;27;20031;-62
2021/07/28 06:08:29;;;;;;;18.45;6.32;;;26.70;94.50;;;;;;4239108;27;20139;-59
2021/07/28 06:10:30;;;;;;;32.05;8.60;;;26.70;94.70;;;;;;4255841;27;20031;-61
2021/07/28 06:12:31;;;;;;;27.05;6.72;;;26.70;94.90;;;;;;4256443;27;20076;-60
2021/07/28 06:14:32;;;;;;;20.92;6.32;;;27.00;94.80;;;;;;4256126;27;20039;-60
2021/07/28 06:16:33;;;;;;;22.25;7.97;;;27.20;94.70;;;;;;4256573;27;20479;-56
2021/07/28 06:18:34;;;;;;;21.77;5.50;;;27.40;94.40;;;;;;4256301;27;20035;-60
2021/07/28 06:20:36;;;;;;;24.15;6.22;;;;;;;;;;4256385;27;20038;-60
2021/07/28 06:22:37;;;;;;;30.55;6.00;;;27.90;94.20;;;;;;4255106;27;20098;-60
2021/07/28 06:24:38;;;;;;;19.00;4.55;;;29.50;92.70;;;;;;4256344;27;20554;-59
2021/07/28 06:26:39;;;;;;;26.48;5.30;;;30.40;91.80;;;;;;4255653;27;20043;-60
2021/07/28 06:28:40;;;;;;;25.70;5.90;;;30.80;91.00;;;;;;4255753;27;20026;-59
2021/07/28 06:30:42;;;;;;;25.48;5.25;;;30.50;90.90;;;;;;4256347;27;20034;-60
2021/07/28 06:32:43;;;;;;;23.65;4.38;;;30.50;91.10;;;;;;4255518;27;20068;-60
2021/07/28 06:34:44;;;;;;;20.20;3.97;;;30.80;90.60;;;;;;4254941;27;20054;-59
2021/07/28 06:36:46;;;;;;;20.58;4.72;;;31.10;90.20;;;;;;4256358;27;20079;-60
2021/07/28 06:38:47;;;;;;;19.27;5.72;;;31.20;89.70;;;;;;4256163;27;20027;-59
2021/07/28 06:40:48;;;;;;;25.67;9.00;;;31.20;89.10;;;;;;4255987;27;20038;-62
2021/07/28 06:42:49;;;;;;;20.02;5.65;;;31.00;89.30;;;;;;4256656;27;20027;-59
2021/07/28 06:44:52;;;;;;;26.88;6.13;;;30.70;90.00;;;;;;4255897;27;20030;-61
2021/07/28 06:46:53;;;;;;;21.05;5.45;;;30.30;90.00;;;;;;4255427;27;20379;-60
2021/07/28 06:48:54;;;;;;;25.02;6.18;;;30.00;90.40;;;;;;4254871;27;20064;-60
2021/07/28 06:50:56;;;;;;;34.30;6.43;;;29.90;90.60;;;;;;4256693;27;20658;-61
2021/07/28 06:52:57;;;;;;;17.00;6.05;;;29.70;90.70;;;;;;4255939;27;20035;-60
2021/07/28 06:54:58;;;;;;;21.55;6.65;;;29.20;91.20;;;;;;4256591;27;20582;-61
2021/07/28 06:56:59;;;;;;;22.52;6.45;;;28.90;91.60;;;;;;4256005;27;20367;-60
2021/07/28 06:59:00;;;;;;;21.75;5.78;;;28.90;91.60;;;;;;4255420;27;20099;-61
2021/07/28 07:01:02;;;;;;;23.98;5.28;;;28.70;91.50;;;;;;4254569;27;20047;-61
2021/07/28 07:03:03;;;;;;;20.92;5.85;;;28.40;91.90;;;;;;4255343;27;20100;-60
2021/07/28 07:05:05;;;;;;;29.50;7.93;;;28.50;92.10;;;;;;4255280;27;20056;-61
2021/07/28 07:07:06;;;;;;;30.23;8.00;;;28.40;92.20;;;;;;4255332;27;20038;-60
2021/07/28 07:09:07;;;;;;;22.77;6.15;;;28.30;92.40;;;;;;4256159;27;20026;-62
2021/07/28 07:11:08;;;;;;;14.85;5.97;;;28.40;92.50;;;;;;4256172;27;20031;-61
2021/07/28 07:13:09;;;;;;;26.80;6.28;;;28.20;92.70;;;;;;4255240;27;20068;-61
2021/07/28 07:15:11;;;;;;;17.67;7.03;;;28.00;93.20;;;;;;4255554;27;20114;-61
2021/07/28 07:17:12;;;;;;;15.75;7.53;;;27.90;93.70;;;;;;4255944;27;20071;-61
2021/07/28 07:19:13;;;;;;;22.15;7.25;;;27.80;94.10;;;;;;4247174;27;20046;-61
2021/07/28 07:21:14;;;;;;;22.98;7.28;;;27.90;94.40;;;;;;4255992;27;20427;-61
2021/07/28 07:23:15;;;;;;;16.45;6.55;;;28.00;94.40;;;;;;4255531;27;20835;-61
2021/07/28 07:25:16;;;;;;;13.38;5.22;;;28.00;94.60;;;;;;4255710;27;20067;-62
2021/07/28 07:27:18;;;;;;;23.95;7.20;;;27.90;94.80;;;;;;4255652;27;20034;-60
2021/07/28 07:29:19;;;;;;;15.40;6.07;;;28.00;94.80;;;;;;4255738;27;20086;-60
2021/07/28 07:31:20;;;;;;;16.60;6.05;;;28.00;94.80;;;;;;4255867;27;20072;-61
2021/07/28 07:33:41;;;;;;;14.00;5.07;;;27.90;94.70;;;;;;4253262;27;20034;-61
2021/07/28 07:35:42;;;;;;;15.63;5.85;;;27.90;94.80;;;;;;4249341;27;20047;-63
2021/07/28 07:37:43;;;;;;;21.10;6.45;;;27.90;94.90;;;;;;4256006;27;20067;-63
2021/07/28 07:39:44;;;;;;;12.40;5.05;;;28.10;95.00;;;;;;4236647;28;20608;-62
2021/07/28 07:41:45;;;;;;;13.50;5.10;;;28.10;94.70;;;;;;4254871;27;20039;-63
2021/07/28 07:43:47;;;;;;;14.18;5.32;;;28.20;94.70;;;;;;4256175;27;20034;-63
2021/07/28 07:45:48;;;;;;;11.90;4.95;;;28.30;94.60;;;;;;4255577;27;20039;-63
2021/07/28 07:47:49;;;;;;;18.92;5.20;;;28.20;94.60;;;;;;4256322;27;20482;-62
2021/07/28 07:49:50;;;;;;;12.20;5.47;;;28.10;94.80;;;;;;4254290;27;20065;-63
2021/07/28 07:51:51;;;;;;;11.70;4.95;;;28.10;94.80;;;;;;4256037;27;20026;-62
2021/07/28 07:53:52;;;;;;;14.52;5.25;;;28.20;94.80;;;;;;4255836;27;20371;-62
2021/07/28 07:55:58;;;;;;;19.38;5.13;;;28.40;94.80;;;;;;4258814;27;20547;-63
2021/07/28 07:57:59;;;;;;;11.55;4.93;;;28.40;94.70;;;;;;4257288;27;20122;-63
2021/07/28 08:00:00;;;;;;;12.40;5.13;;;28.40;94.80;;;;;;4258794;27;20355;-63
2021/07/28 08:02:01;;;;;;;15.45;5.82;;;28.70;94.70;;;;;;4258240;27;20474;-63
2021/07/28 08:04:02;;;;;;;13.35;6.00;;;28.80;94.80;;;;;;4257848;27;20027;-62
2021/07/28 08:06:04;;;;;;;16.75;6.57;;;28.90;94.80;;;;;;4258514;27;20027;-63
2021/07/28 08:08:05;;;;;;;12.82;5.95;;;29.00;95.10;;;;;;4259129;27;20494;-63
2021/07/28 08:10:07;;;;;;;20.48;8.38;;;29.00;95.30;;;;;;4258872;27;20510;-62
2021/07/28 08:12:09;;;;;;;14.68;6.80;;;29.10;95.50;;;;;;4258200;27;20075;-63
2021/07/28 08:14:10;;;;;;;16.63;5.82;;;29.10;95.70;;;;;;4239529;27;20035;-63
2021/07/28 08:16:16;;;;;;;17.98;6.28;;;29.20;95.80;;;;;;4258378;27;20479;-62
2021/07/28 08:18:19;;;;;;;20.10;5.90;;;29.20;96.10;;;;;;4258739;27;20079;-62
2021/07/28 08:20:20;;;;;;;17.27;6.20;;;29.40;96.10;;;;;;4243166;27;20046;-62
2021/07/28 08:22:21;;;;;;;16.13;5.82;;;29.50;96.10;;;;;;4256122;27;20043;-63
2021/07/28 08:24:22;;;;;;;16.20;6.28;;;29.50;96.10;;;;;;4258181;27;20436;-62
2021/07/28 08:26:23;;;;;;;15.80;5.93;;;29.60;96.20;;;;;;4258535;27;20023;-62
2021/07/28 08:28:24;;;;;;;14.15;7.22;;;29.60;96.20;;;;;;4257695;27;20105;-63
2021/07/28 08:30:25;;;;;;;13.05;6.32;;;29.60;96.60;;;;;;4258261;27;20091;-64
2021/07/28 08:32:27;;;;;;;24.35;7.20;;;29.50;96.70;;;;;;4256710;27;20038;-63
2021/07/28 08:34:28;;;;;;;20.50;6.90;;;29.50;96.90;;;;;;4258284;27;20428;-62
2021/07/28 08:36:29;;;;;;;19.23;5.82;;;29.50;97.00;;;;;;4257551;27;20084;-63
2021/07/28 08:38:31;;;;;;;22.75;7.30;;;29.70;97.00;;;;;;4257822;27;20072;-62
2021/07/28 08:40:34;;;;;;;17.35;5.82;;;29.70;96.90;;;;;;4257542;27;20043;-62
2021/07/28 08:42:37;;;;;;;17.13;6.82;;;29.90;97.20;;;;;;4257885;27;20509;-63
2021/07/28 08:44:40;;;;;;;13.18;5.75;;;29.80;96.70;;;;;;4257765;27;20019;-62
2021/07/28 08:46:41;;;;;;;17.15;6.55;;;29.80;96.40;;;;;;4257042;27;20062;-62
2021/07/28 08:48:42;;;;;;;19.98;7.20;;;29.80;96.20;;;;;;4257484;27;20043;-62
2021/07/28 08:50:47;;;;;;;19.02;5.88;;;30.00;96.10;;;;;;4258327;27;20035;-63
2021/07/28 08:52:49;;;;;;;22.90;6.82;;;30.10;96.00;;;;;;4258293;27;20455;-63
2021/07/28 08:54:50;;;;;;;15.23;6.10;;;30.10;96.10;;;;;;4256870;27;20039;-63
2021/07/28 08:56:53;;;;;;;26.02;6.35;;;30.30;95.80;;;;;;4257503;27;20047;-62
2021/07/28 08:58:55;;;;;;;24.27;5.78;;;30.30;95.20;;;;;;4257084;27;20038;-62
2021/07/28 09:00:57;;;;;;;17.35;4.38;;;30.40;93.70;;;;;;4256968;27;20046;-62
2021/07/28 09:02:59;;;;;;;18.98;4.97;;;30.30;93.10;;;;;;4256010;27;20042;-63
2021/07/28 09:05:00;;;;;;;19.45;5.22;;;30.20;92.70;;;;;;4256779;27;20034;-65
2021/07/28 09:07:13;;;;;;;28.52;5.93;;;30.20;92.70;;;;;;4256091;27;20126;-63
2021/07/28 09:09:14;;;;;;;22.27;5.65;;;30.20;92.40;;;;;;4257407;27;20754;-63
2021/07/28 09:11:19;;;;;;;17.55;5.78;;;30.40;92.80;;;;;;4257420;27;20602;-62
2021/07/28 09:13:27;;;;;;;20.42;5.20;;;30.60;93.00;;;;;;4256587;27;20047;-62
2021/07/28 09:15:38;;;;;;;16.77;4.50;;;30.60;93.20;;;;;;4256459;27;20043;-64
2021/07/28 09:17:44;;;;;;;18.27;5.35;;;30.70;93.10;;;;;;4256822;27;20133;-62
2021/07/28 09:19:48;;;;;;;21.27;5.63;;;30.80;93.00;;;;;;4257589;27;20108;-63
2021/07/28 09:22:03;;;;;;;12.38;5.10;;;30.90;92.90;;;;;;4257181;27;20062;-63
2021/07/28 09:24:12;;;;;;;17.95;6.20;;;30.90;92.50;;;;;;4257734;27;20031;-63
2021/07/28 09:26:30;;;;;;;9.85;4.45;;;31.00;92.60;;;;;;4257731;27;20030;-62
2021/07/28 09:28:32;;;;;;;22.00;4.80;;;31.10;91.90;;;;;;4253439;27;20075;-64
2021/07/28 09:30:34;;;;;;;20.08;4.80;;;31.20;91.80;;;;;;4257100;27;20022;-60
2021/07/28 09:32:55;;;;;;;17.05;4.90;;;31.40;91.30;;;;;;4240843;27;20050;-62
2021/07/28 09:34:56;;;;;;;11.45;4.10;;;31.50;91.00;;;;;;4256496;27;20067;-66
2021/07/28 09:37:03;;;;;;;15.40;5.05;;;31.50;90.00;;;;;;4257051;27;20014;-63
2021/07/28 09:39:05;;;;;;;13.23;4.57;;;31.60;89.20;;;;;;4256814;27;20128;-64
2021/07/28 09:41:20;;;;;;;18.50;4.90;;;31.70;89.20;;;;;;4238057;27;20059;-63
2021/07/28 09:43:22;;;;;;;17.27;4.85;;;31.70;89.50;;;;;;4256711;27;20048;-63
2021/07/28 09:45:28;;;;;;;14.63;5.25;;;31.70;90.00;;;;;;4256232;27;20039;-62
2021/07/28 09:47:39;;;;;;;15.38;5.25;;;31.70;90.00;;;;;;4256857;27;20072;-62
2021/07/28 09:49:46;;;;;;;22.70;4.70;;;31.80;89.10;;;;;;4257054;27;20083;-64
2021/07/28 09:51:48;;;;;;;19.45;5.45;;;31.70;88.20;;;;;;4260201;27;20103;-60
2021/07/28 09:53:56;;;;;;;16.02;4.43;;;31.70;88.10;;;;;;4256051;27;20070;-61
2021/07/28 09:55:58;;;;;;;20.80;5.68;;;31.70;88.70;;;;;;4255438;27;20099;-63
2021/07/28 09:58:00;;;;;;;21.75;4.85;;;31.60;88.40;;;;;;4255204;27;20127;-63
2021/07/28 10:00:06;;;;;;;12.60;5.28;;;31.70;88.70;;;;;;4255106;27;20028;-63
2021/07/28 10:02:07;;;;;;;21.13;5.32;;;31.70;88.80;;;;;;4256409;27;20498;-64
2021/07/28 10:04:10;;;;;;;20.00;4.55;;;31.70;88.90;;;;;;4255749;27;20043;-63
2021/07/28 10:06:12;;;;;;;19.90;5.03;;;31.70;88.80;;;;;;4256621;27;20023;-62
2021/07/28 10:08:14;;;;;;;21.23;4.97;;;31.80;89.20;;;;;;4255964;27;20091;-63
2021/07/28 10:10:19;;;;;;;20.60;5.93;;;31.90;87.80;;;;;;4257002;27;20091;-63
2021/07/28 10:12:22;;;;;;;13.43;4.35;;;31.90;88.30;;;;;;4255461;27;20039;-65
2021/07/28 10:14:24;;;;;;;20.48;4.55;;;31.80;88.50;;;;;;4255683;27;20034;-64
2021/07/28 10:16:26;;;;;;;13.77;4.93;;;31.80;89.00;;;;;;4255813;27;20034;-64
2021/07/28 10:18:28;;;;;;;14.38;4.90;;;31.90;88.70;;;;;;4240927;27;20038;-65
2021/07/28 10:20:30;;;;;;;17.42;5.10;;;31.90;88.80;;;;;;4253816;27;20494;-64
2021/07/28 10:22:32;;;;;;;17.48;4.55;;;32.00;88.60;;;;;;4254957;27;20090;-62
2021/07/28 10:24:33;;;;;;;16.23;5.20;;;32.00;88.50;;;;;;4256097;27;20447;-62
2021/07/28 10:26:37;;;;;;;19.05;5.18;;;32.00;88.50;;;;;;4256411;27;20523;-65
2021/07/28 10:28:46;;;;;;;14.90;4.75;;;32.10;88.70;;;;;;4256500;27;20022;-63
2021/07/28 10:31:16;;;;;;;23.07;5.37;;;32.00;88.30;;;;;;4255595;27;20045;-63